Time;durP1;ratioP1;P1;durP2;ratioP2;P2;SDS_P1;SDS_P2;PMS_P1;PMS_P2;Temp;Humidity;BMP_temperature;BMP_pressure;BME280_temperature;BME280_humidity;BME280_pressure;Samples;Min_cycle;Max_cycle;Signal;HPM_P1;HPM_P2
2022/08/12 00:44:54;;;;;;;5.05;2.90;;;20.80;93.90;;;;;;5043168;28;20045;-64
2022/08/12 00:47:20;;;;;;;9.52;3.28;;;20.80;94.10;;;;;;5046889;28;20037;-64
2022/08/12 00:49:48;;;;;;;5.57;2.92;;;20.70;94.20;;;;;;5045486;28;20045;-64
2022/08/12 00:52:15;;;;;;;6.60;3.17;;;20.70;94.40;;;;;;5043488;28;20048;-63
2022/08/12 00:54:49;;;;;;;5.80;3.33;;;20.60;94.50;;;;;;5037010;28;20049;-64
2022/08/12 00:57:16;;;;;;;6.78;2.78;;;20.60;94.60;;;;;;5048378;28;20037;-63
2022/08/12 00:59:53;;;;;;;5.00;2.70;;;20.60;94.80;;;;;;5047943;28;20577;-63
2022/08/12 01:02:31;;;;;;;4.50;2.92;;;20.60;94.90;;;;;;5046876;28;20400;-63
2022/08/12 01:13:21;;;;;;;5.93;3.47;;;20.40;95.20;;;;;;5037477;28;19971;-63
2022/08/12 01:15:50;;;;;;;7.72;3.67;;;20.40;95.50;;;;;;5047094;28;20045;-64
2022/08/12 01:18:19;;;;;;;6.72;2.92;;;20.40;95.70;;;;;;5048157;28;20045;-64
2022/08/12 01:20:51;;;;;;;8.52;3.53;;;20.40;95.80;;;;;;5047801;28;20053;-63
2022/08/12 01:23:54;;;;;;;6.40;3.17;;;20.30;95.90;;;;;;5045152;28;20040;-64
2022/08/12 01:26:22;;;;;;;5.45;3.30;;;20.30;96.00;;;;;;5047714;28;20048;-64
2022/08/12 01:28:54;;;;;;;5.80;2.88;;;20.30;96.20;;;;;;5047657;28;20041;-64
2022/08/12 01:31:20;;;;;;;5.35;3.00;;;20.20;96.40;;;;;;5043750;28;20484;-64
2022/08/12 01:34:02;;;;;;;6.47;3.30;;;20.20;96.60;;;;;;5047107;28;20075;-64
2022/08/12 01:36:49;;;;;;;4.82;3.30;;;20.10;96.70;;;;;;5046261;28;20048;-64
2022/08/12 01:39:16;;;;;;;6.80;3.30;;;20.10;96.80;;;;;;5047209;28;20060;-63
2022/08/12 01:41:52;;;;;;;5.75;3.13;;;20.00;97.00;;;;;;5046805;28;20090;-63
2022/08/12 01:44:20;;;;;;;5.88;3.40;;;20.00;97.10;;;;;;5038420;28;20048;-64
2022/08/12 01:47:02;;;;;;;6.47;3.53;;;20.00;97.20;;;;;;5047932;28;20117;-64
2022/08/12 01:49:37;;;;;;;6.82;3.38;;;20.00;97.40;;;;;;5047033;28;20454;-64
2022/08/12 01:52:05;;;;;;;5.97;3.25;;;19.90;97.50;;;;;;5046023;28;20037;-64
2022/08/12 01:54:41;;;;;;;5.85;3.45;;;19.80;97.70;;;;;;5047561;28;20056;-64
2022/08/12 01:57:35;;;;;;;5.93;3.70;;;19.80;98.00;;;;;;5044205;28;20034;-64
2022/08/12 02:00:11;;;;;;;6.72;3.70;;;19.80;98.20;;;;;;5043834;28;20056;-64
2022/08/12 02:02:45;;;;;;;5.68;3.60;;;19.70;98.50;;;;;;5038906;28;20110;-64
2022/08/12 02:11:34;;;;;;;6.75;4.25;;;19.50;99.10;;;;;;5040422;28;20102;-63
2022/08/12 02:14:34;;;;;;;6.32;4.57;;;19.50;99.40;;;;;;5050508;28;20094;-64
2022/08/12 02:17:16;;;;;;;6.15;4.47;;;19.50;99.60;;;;;;5045905;28;20073;-64
2022/08/12 02:20:03;;;;;;;6.47;4.63;;;19.40;99.70;;;;;;5050114;28;20085;-63
2022/08/12 02:22:37;;;;;;;6.80;4.80;;;19.40;99.80;;;;;;5050238;28;20052;-63
2022/08/12 02:25:24;;;;;;;6.95;4.47;;;19.40;99.90;;;;;;5050253;28;20084;-63
2022/08/12 02:27:52;;;;;;;7.07;4.18;;;19.30;99.90;;;;;;5050393;28;20045;-64
2022/08/12 02:30:30;;;;;;;7.45;4.50;;;19.30;99.90;;;;;;5050749;28;20369;-64
2022/08/12 02:32:58;;;;;;;6.75;4.55;;;19.30;99.90;;;;;;5048348;28;20518;-63
2022/08/12 02:35:27;;;;;;;7.43;4.25;;;19.20;99.90;;;;;;5050131;28;20045;-63
2022/08/12 02:37:55;;;;;;;7.07;4.25;;;19.20;99.90;;;;;;5049304;28;20037;-63
2022/08/12 02:40:22;;;;;;;7.20;4.60;;;19.10;99.90;;;;;;5049956;28;20080;-64
2022/08/12 02:43:01;;;;;;;7.28;4.50;;;19.10;99.90;;;;;;5050472;28;20044;-63
2022/08/12 02:45:44;;;;;;;7.10;4.97;;;19.10;99.90;;;;;;5050740;28;20132;-63
2022/08/12 02:48:16;;;;;;;7.45;4.60;;;19.00;99.90;;;;;;5048018;28;20055;-63
2022/08/12 02:50:47;;;;;;;7.10;4.60;;;19.00;99.90;;;;;;5048470;28;20052;-64
2022/08/12 02:53:13;;;;;;;5.90;4.53;;;19.00;99.90;;;;;;5040349;28;20053;-63
2022/08/12 02:55:40;;;;;;;8.70;4.80;;;18.90;99.90;;;;;;5050091;28;20037;-64
2022/08/12 02:58:08;;;;;;;7.63;4.93;;;18.90;99.90;;;;;;5049849;28;20087;-64
2022/08/12 03:00:35;;;;;;;7.82;4.97;;;18.90;99.90;;;;;;5049823;28;20041;-63
2022/08/12 03:03:05;;;;;;;8.45;5.22;;;18.80;99.90;;;;;;5048365;28;20419;-63
2022/08/12 03:05:34;;;;;;;6.90;5.28;;;18.80;99.90;;;;;;5049794;28;20167;-63
2022/08/12 03:08:06;;;;;;;7.38;5.15;;;18.80;99.90;;;;;;5048409;28;20338;-63
2022/08/12 03:10:38;;;;;;;7.78;4.75;;;18.80;99.90;;;;;;5045685;28;20416;-63
2022/08/12 03:13:07;;;;;;;8.68;5.13;;;18.70;99.90;;;;;;5049374;28;20418;-64
2022/08/12 03:15:34;;;;;;;6.50;4.97;;;18.70;99.90;;;;;;5035633;28;20037;-64
2022/08/12 03:18:25;;;;;;;10.43;5.55;;;18.60;99.90;;;;;;5047573;28;20101;-64
2022/08/12 03:20:52;;;;;;;7.70;5.07;;;18.60;99.90;;;;;;5046396;28;20060;-63
2022/08/12 03:23:21;;;;;;;7.28;5.45;;;18.60;99.90;;;;;;5048624;28;20352;-63
2022/08/12 03:25:50;;;;;;;7.57;5.00;;;18.60;99.90;;;;;;5049841;28;20431;-63
2022/08/12 03:28:49;;;;;;;7.82;5.28;;;18.50;99.90;;;;;;5049792;28;20136;-63
2022/08/12 03:31:05;;;;;;;7.03;5.30;;;18.50;99.90;;;;;;5044633;28;20041;-63
2022/08/12 03:33:38;;;;;;;7.97;5.40;;;18.50;99.90;;;;;;5049529;28;20444;-64
2022/08/12 03:36:06;;;;;;;6.97;5.03;;;18.40;99.90;;;;;;5048088;28;20056;-63
2022/08/12 03:38:36;;;;;;;6.30;5.07;;;18.40;99.90;;;;;;5049279;28;20476;-63
2022/08/12 03:41:33;;;;;;;7.47;4.80;;;18.40;99.90;;;;;;5048367;28;20488;-64
2022/08/12 04:00:50;;;;;;;7.18;5.03;;;18.20;99.90;;;;;;5048558;28;20045;-63
2022/08/12 04:06:08;;;;;;;9.00;4.75;;;18.10;99.90;;;;;;5013829;28;20054;-63
2022/08/12 04:08:35;;;;;;;7.22;4.63;;;18.10;99.90;;;;;;5048159;28;20045;-63
2022/08/12 04:13:47;;;;;;;6.72;4.63;;;18.10;99.90;;;;;;5043759;28;20151;-63
2022/08/12 04:16:13;;;;;;;6.55;4.80;;;18.00;99.90;;;;;;5046623;28;20049;-64
2022/08/12 04:18:39;;;;;;;6.70;4.97;;;18.00;99.90;;;;;;5047858;28;20379;-63
2022/08/12 04:21:11;;;;;;;7.10;4.47;;;18.00;99.90;;;;;;5047159;28;20079;-64
2022/08/12 04:23:43;;;;;;;7.97;5.13;;;18.00;99.90;;;;;;5047208;28;20128;-63
2022/08/12 04:26:09;;;;;;;8.38;5.20;;;18.00;99.90;;;;;;5034965;28;20063;-63
2022/08/12 04:28:34;;;;;;;7.28;4.95;;;18.00;99.90;;;;;;5046849;28;20037;-64
2022/08/12 04:31:00;;;;;;;6.97;4.72;;;18.00;99.90;;;;;;5041577;28;20036;-63
2022/08/12 04:33:26;;;;;;;7.07;5.10;;;17.90;99.90;;;;;;5046892;28;20040;-63
2022/08/12 04:35:53;;;;;;;8.75;5.53;;;17.90;99.90;;;;;;5046092;28;20041;-63
2022/08/12 04:38:20;;;;;;;9.63;5.28;;;18.00;99.90;;;;;;5050772;28;20056;-63
2022/08/12 04:40:45;;;;;;;8.45;5.22;;;17.90;99.90;;;;;;5046226;28;20053;-63
2022/08/12 04:43:11;;;;;;;7.20;5.30;;;17.90;99.90;;;;;;5037060;28;20068;-63
2022/08/12 04:45:38;;;;;;;8.15;5.35;;;17.90;99.90;;;;;;5044248;28;20204;-63
2022/08/12 04:48:04;;;;;;;7.78;5.63;;;17.90;99.90;;;;;;5035855;28;20136;-63
2022/08/12 04:50:31;;;;;;;9.63;5.30;;;17.90;99.90;;;;;;5039877;28;20046;-64
2022/08/12 04:52:59;;;;;;;7.88;5.22;;;17.90;99.90;;;;;;5044297;28;20378;-64
2022/08/12 04:55:26;;;;;;;7.88;5.65;;;17.90;99.90;;;;;;5045808;28;20047;-64
2022/08/12 04:57:52;;;;;;;9.02;6.18;;;17.90;99.90;;;;;;5040567;28;20045;-64
2022/08/12 05:00:18;;;;;;;9.10;5.22;;;17.90;99.90;;;;;;5041646;28;20037;-64
2022/08/12 05:02:43;;;;;;;9.48;5.43;;;17.80;99.90;;;;;;5040215;28;20042;-64
2022/08/12 05:05:18;;;;;;;7.05;5.22;;;17.90;99.90;;;;;;5043161;28;20041;-64
2022/08/12 05:07:44;;;;;;;8.63;5.43;;;17.90;99.90;;;;;;5045665;28;20060;-64
2022/08/12 05:10:09;;;;;;;7.80;5.80;;;17.90;99.90;;;;;;5046360;28;20360;-64
2022/08/12 05:12:41;;;;;;;7.53;5.35;;;18.00;99.90;;;;;;5046505;28;20052;-64
2022/08/12 05:15:08;;;;;;;9.00;5.97;;;18.10;99.90;;;;;;5033155;28;20049;-64
2022/08/12 05:17:33;;;;;;;6.43;5.18;;;18.20;99.90;;;;;;5046561;28;20174;-64
2022/08/12 05:19:59;;;;;;;10.13;5.85;;;18.20;99.90;;;;;;5046492;28;20477;-64
2022/08/12 05:22:25;;;;;;;8.75;5.47;;;18.40;99.90;;;;;;5042711;28;20210;-64
2022/08/12 05:24:51;;;;;;;9.80;5.93;;;18.40;99.90;;;;;;5044194;28;20127;-64
2022/08/12 05:27:17;;;;;;;6.97;5.15;;;18.50;99.90;;;;;;5043207;28;20111;-64
2022/08/12 05:29:48;;;;;;;8.85;5.20;;;18.70;99.90;;;;;;5047300;28;20033;-64
2022/08/12 05:32:19;;;;;;;9.25;5.93;;;18.80;99.90;;;;;;5047812;28;20051;-64
2022/08/12 05:34:46;;;;;;;8.85;5.38;;;18.90;99.90;;;;;;5047287;28;20044;-64
2022/08/12 05:37:12;;;;;;;9.05;5.00;;;19.00;99.90;;;;;;5037390;28;20123;-64
2022/08/12 05:39:38;;;;;;;7.22;5.05;;;19.10;99.90;;;;;;5051614;28;20115;-65
2022/08/12 05:42:04;;;;;;;8.38;5.45;;;19.10;99.90;;;;;;5050824;28;20171;-64
2022/08/12 05:44:29;;;;;;;7.03;5.35;;;19.20;99.90;;;;;;5041426;28;20065;-64
2022/08/12 05:46:55;;;;;;;8.00;4.75;;;19.40;99.90;;;;;;5048770;28;20483;-64
2022/08/12 05:49:20;;;;;;;8.85;5.20;;;19.40;99.90;;;;;;5044005;28;20528;-64
2022/08/12 05:51:46;;;;;;;8.38;5.30;;;19.50;99.90;;;;;;5044724;28;20487;-65
2022/08/12 05:54:11;;;;;;;9.50;5.38;;;19.60;99.90;;;;;;5036921;28;20064;-64
2022/08/12 05:56:38;;;;;;;8.57;5.18;;;19.70;99.90;;;;;;5051888;28;20037;-64
2022/08/12 05:59:09;;;;;;;7.30;4.82;;;19.70;99.90;;;;;;5050673;28;20041;-64
2022/08/12 06:01:36;;;;;;;7.85;5.40;;;19.90;99.90;;;;;;5051879;28;20140;-64
2022/08/12 06:04:02;;;;;;;11.00;5.68;;;20.00;99.90;;;;;;5036381;28;20076;-64
2022/08/12 06:06:34;;;;;;;7.47;5.13;;;20.00;99.90;;;;;;5049758;28;20061;-65
2022/08/12 06:09:00;;;;;;;8.27;4.80;;;20.20;99.90;;;;;;5051143;28;20186;-65
2022/08/12 06:11:26;;;;;;;9.38;5.05;;;20.20;99.90;;;;;;5050946;28;20144;-65
2022/08/12 06:13:57;;;;;;;8.27;4.60;;;20.30;99.90;;;;;;5049215;28;20041;-65
2022/08/12 06:16:23;;;;;;;9.85;5.18;;;20.40;99.90;;;;;;5050061;28;20051;-64
2022/08/12 06:18:49;;;;;;;7.80;5.30;;;20.50;99.90;;;;;;5047438;28;20138;-65
2022/08/12 06:21:17;;;;;;;6.95;4.88;;;20.60;99.90;;;;;;5044844;28;20057;-65
2022/08/12 06:23:44;;;;;;;8.32;5.00;;;20.70;99.90;;;;;;5050962;28;20067;-64
2022/08/12 06:26:11;;;;;;;7.63;4.35;;;20.70;99.90;;;;;;5049000;28;20119;-64
2022/08/12 06:28:43;;;;;;;7.00;4.88;;;20.80;99.90;;;;;;5051339;28;20122;-65
2022/08/12 06:31:15;;;;;;;9.00;4.60;;;20.80;99.90;;;;;;5050175;28;20391;-65
2022/08/12 06:33:45;;;;;;;6.57;4.38;;;20.90;99.90;;;;;;5049827;28;20112;-65
2022/08/12 06:36:12;;;;;;;7.70;4.70;;;20.90;99.90;;;;;;5048552;28;20045;-64
2022/08/12 06:38:39;;;;;;;7.80;4.53;;;21.10;99.90;;;;;;5050265;28;20053;-65
2022/08/12 06:43:51;;;;;;;8.73;4.27;;;21.20;99.90;;;;;;5050503;28;20049;-65
2022/08/12 06:46:18;;;;;;;9.40;4.78;;;21.30;99.90;;;;;;5048946;28;20286;-65
2022/08/12 06:48:43;;;;;;;9.93;4.28;;;21.50;99.90;;;;;;5049952;28;20049;-65
2022/08/12 06:51:10;;;;;;;6.60;4.25;;;21.50;99.90;;;;;;5048402;28;20037;-65
2022/08/12 06:53:36;;;;;;;6.35;3.88;;;21.60;99.90;;;;;;5048876;28;20495;-65
2022/08/12 06:56:02;;;;;;;6.55;3.80;;;21.70;99.90;;;;;;5049303;28;20037;-65
2022/08/12 06:58:30;;;;;;;7.35;4.30;;;21.80;99.90;;;;;;5050536;28;20048;-65
2022/08/12 07:00:57;;;;;;;7.82;4.68;;;21.80;99.90;;;;;;5062733;28;20471;-65
2022/08/12 07:03:27;;;;;;;7.68;4.22;;;21.90;99.90;;;;;;5042695;28;20042;-65
2022/08/12 07:06:05;;;;;;;5.93;4.10;;;22.00;99.90;;;;;;5042944;28;20139;-65
2022/08/12 07:08:33;;;;;;;6.88;4.00;;;22.10;99.90;;;;;;5048370;28;20053;-65
2022/08/12 07:11:01;;;;;;;6.65;4.03;;;22.20;99.90;;;;;;5050222;28;20045;-65
2022/08/12 07:13:42;;;;;;;7.22;3.70;;;22.40;99.90;;;;;;5049572;28;20482;-65
2022/08/12 07:16:12;;;;;;;5.35;3.25;;;22.50;99.90;;;;;;5045008;28;20130;-65
2022/08/12 07:18:38;;;;;;;7.00;3.42;;;22.60;99.90;;;;;;5049839;28;20045;-65
2022/08/12 07:21:05;;;;;;;6.00;3.58;;;22.70;99.90;;;;;;5047869;28;20190;-65
2022/08/12 07:23:33;;;;;;;8.65;3.83;;;22.80;99.80;;;;;;5037356;28;20041;-65
2022/08/12 07:26:04;;;;;;;7.72;3.95;;;23.00;99.70;;;;;;5048964;28;20518;-65
2022/08/12 07:28:33;;;;;;;7.60;3.40;;;23.10;99.10;;;;;;5049427;28;20176;-65
2022/08/12 07:30:59;;;;;;;8.57;3.70;;;23.10;98.90;;;;;;5049448;28;20068;-65
2022/08/12 07:33:27;;;;;;;10.05;4.07;;;23.20;98.70;;;;;;5049578;28;20094;-65
2022/08/12 07:35:55;;;;;;;6.07;3.55;;;23.30;98.50;;;;;;5047695;28;20132;-65
2022/08/12 07:38:29;;;;;;;8.05;3.53;;;23.40;98.30;;;;;;5049450;28;20068;-64
2022/08/12 07:41:10;;;;;;;5.13;3.47;;;23.50;98.30;;;;;;5049519;28;20477;-65
2022/08/12 07:43:39;;;;;;;6.90;3.70;;;23.60;97.80;;;;;;5047952;28;20115;-65
2022/08/12 07:46:07;;;;;;;6.85;3.47;;;23.70;97.80;;;;;;5048903;28;20048;-65
2022/08/12 07:48:41;;;;;;;7.55;3.78;;;23.90;97.40;;;;;;5049498;28;20041;-65
2022/08/12 07:51:08;;;;;;;6.53;3.13;;;23.90;97.10;;;;;;5040535;28;20444;-65
2022/08/12 07:53:34;;;;;;;5.78;3.13;;;24.00;96.50;;;;;;5048895;28;20045;-65
2022/08/12 07:56:02;;;;;;;5.93;3.05;;;24.10;96.20;;;;;;5049105;28;20040;-65
2022/08/12 07:58:27;;;;;;;6.78;3.30;;;24.20;95.90;;;;;;5041934;28;20388;-65
2022/08/12 08:00:56;;;;;;;5.30;2.67;;;24.30;95.20;;;;;;5048153;28;20045;-65
2022/08/12 08:03:24;;;;;;;5.63;2.90;;;24.50;95.20;;;;;;5041055;28;20140;-65
2022/08/12 08:05:50;;;;;;;5.78;2.83;;;24.50;94.40;;;;;;5042174;28;20045;-65
2022/08/12 08:08:19;;;;;;;5.88;2.85;;;24.70;94.70;;;;;;5034926;28;20116;-65
2022/08/12 08:10:46;;;;;;;5.88;2.58;;;24.80;94.40;;;;;;5049015;28;20041;-65
2022/08/12 08:13:13;;;;;;;5.75;2.60;;;25.00;94.30;;;;;;5048123;28;20033;-65
2022/08/12 08:15:39;;;;;;;7.30;2.75;;;25.10;94.30;;;;;;5029545;28;20190;-66
2022/08/12 08:18:09;;;;;;;8.05;2.80;;;25.20;94.00;;;;;;5045767;28;20450;-65
2022/08/12 08:20:39;;;;;;;4.30;2.70;;;25.30;93.10;;;;;;5048705;28;20060;-64
2022/08/12 08:23:16;;;;;;;5.70;2.38;;;25.40;92.70;;;;;;5047789;28;20052;-64
2022/08/12 08:25:44;;;;;;;6.60;2.85;;;25.50;92.00;;;;;;5048220;28;20074;-64
2022/08/12 08:28:12;;;;;;;6.43;2.65;;;25.60;91.30;;;;;;5045798;28;20472;-64
2022/08/12 08:30:42;;;;;;;6.03;2.35;;;25.70;91.00;;;;;;5048582;28;20206;-64
2022/08/12 08:33:10;;;;;;;3.67;2.25;;;25.80;90.70;;;;;;5047454;28;20396;-64
2022/08/12 08:35:38;;;;;;;5.38;2.35;;;25.90;91.10;;;;;;5048105;28;20461;-64
2022/08/12 08:38:12;;;;;;;6.85;2.50;;;26.00;90.20;;;;;;5045507;28;20045;-64
2022/08/12 08:43:24;;;;;;;6.53;2.78;;;26.20;88.20;;;;;;5040007;28;20059;-64
2022/08/12 08:45:50;;;;;;;6.10;2.50;;;26.30;89.10;;;;;;5037075;28;20041;-64
2022/08/12 08:48:16;;;;;;;5.80;2.40;;;26.30;88.40;;;;;;5044088;28;20076;-64
2022/08/12 08:50:43;;;;;;;5.03;2.30;;;26.40;87.40;;;;;;5047491;28;20602;-64
2022/08/12 08:53:09;;;;;;;4.32;2.40;;;26.50;86.30;;;;;;5046849;28;20071;-64
2022/08/12 08:55:35;;;;;;;5.90;2.70;;;26.60;85.50;;;;;;5041031;28;20044;-64
2022/08/12 08:58:01;;;;;;;6.25;2.55;;;26.60;84.60;;;;;;5042527;28;20381;-64
2022/08/12 09:00:29;;;;;;;5.28;2.70;;;26.80;84.00;;;;;;5045964;28;20059;-64
2022/08/12 09:02:54;;;;;;;5.65;2.63;;;26.80;83.40;;;;;;5047030;28;20049;-64
2022/08/12 09:05:20;;;;;;;3.63;2.35;;;26.90;83.40;;;;;;5046610;28;20045;-65
2022/08/12 09:07:48;;;;;;;5.90;2.60;;;27.00;82.50;;;;;;5046901;28;20117;-65
2022/08/12 09:10:18;;;;;;;5.57;3.10;;;27.10;81.10;;;;;;5046946;28;20056;-65
2022/08/12 09:15:30;;;;;;;6.70;2.63;;;27.20;81.50;;;;;;5046877;28;20048;-65
2022/08/12 09:17:59;;;;;;;7.72;2.17;;;27.40;82.10;;;;;;5047606;28;20049;-65
2022/08/12 09:20:27;;;;;;;6.45;2.72;;;27.50;82.10;;;;;;5038320;28;20083;-65
2022/08/12 09:22:54;;;;;;;6.65;2.53;;;27.60;81.40;;;;;;5046454;28;20212;-65
2022/08/12 09:25:23;;;;;;;5.38;2.28;;;27.70;79.70;;;;;;5047206;28;20041;-65
2022/08/12 09:27:50;;;;;;;5.80;2.65;;;27.70;79.30;;;;;;5045647;28;20179;-65
2022/08/12 09:30:16;;;;;;;7.30;2.42;;;27.80;78.50;;;;;;5048185;28;20058;-65
2022/08/12 09:32:49;;;;;;;4.65;2.17;;;27.90;76.70;;;;;;5047434;28;20457;-65
2022/08/12 09:35:19;;;;;;;5.40;2.50;;;28.00;76.80;;;;;;5045506;28;20045;-65
2022/08/12 09:37:47;;;;;;;6.97;2.45;;;28.10;76.80;;;;;;5046880;28;20063;-65
2022/08/12 09:40:14;;;;;;;8.18;2.45;;;28.20;77.30;;;;;;5047639;28;20044;-65
2022/08/12 09:45:24;;;;;;;;;;;28.40;77.10;;;;;;5030205;28;20078;-65
2022/08/12 09:47:50;;;;;;;7.22;2.40;;;28.40;75.10;;;;;;5042249;28;20268;-65
2022/08/12 09:50:17;;;;;;;6.78;2.63;;;28.60;73.40;;;;;;5046223;28;20416;-65
2022/08/12 09:52:44;;;;;;;5.82;2.33;;;28.60;71.50;;;;;;5047095;28;20154;-65
2022/08/12 09:55:10;;;;;;;5.53;2.30;;;28.70;71.10;;;;;;5046900;28;20048;-65
2022/08/12 09:57:36;;;;;;;7.43;2.40;;;28.80;69.00;;;;;;5041189;28;20416;-65
2022/08/12 10:00:10;;;;;;;4.07;2.30;;;28.80;67.60;;;;;;5047543;28;20040;-65
2022/08/12 10:02:37;;;;;;;3.92;2.15;;;28.90;66.60;;;;;;5036742;28;20045;-65
2022/08/12 10:05:08;;;;;;;5.20;2.50;;;28.90;65.20;;;;;;5043060;28;20051;-65
2022/08/12 10:07:34;;;;;;;4.32;2.30;;;28.90;64.20;;;;;;5045567;28;20060;-65
2022/08/12 10:09:59;;;;;;;4.90;2.22;;;29.00;63.90;;;;;;5041097;28;20037;-64
2022/08/12 10:15:12;;;;;;;4.85;2.30;;;29.10;62.90;;;;;;5043864;28;20045;-65
2022/08/12 10:17:37;;;;;;;4.55;2.30;;;29.20;63.50;;;;;;5046582;28;20153;-65
2022/08/12 10:20:03;;;;;;;4.40;2.20;;;29.20;62.50;;;;;;5047207;28;20099;-65
2022/08/12 10:22:29;;;;;;;6.22;2.30;;;29.30;60.90;;;;;;5033375;28;20169;-65
2022/08/12 10:30:23;;;;;;;4.03;2.00;;;29.40;58.30;;;;;;5051096;28;20068;-65
2022/08/12 10:32:58;;;;;;;5.38;2.20;;;29.50;59.80;;;;;;5050572;28;20045;-65
2022/08/12 10:35:31;;;;;;;3.83;2.00;;;29.60;59.20;;;;;;5050647;28;20048;-65
2022/08/12 10:38:00;;;;;;;5.15;2.08;;;29.60;57.90;;;;;;5045742;28;20546;-64
2022/08/12 10:40:27;;;;;;;7.88;2.20;;;29.70;57.90;;;;;;5045036;28;20071;-65
2022/08/12 10:45:37;;;;;;;6.13;1.90;;;29.70;57.10;;;;;;5040008;28;20064;-65
2022/08/12 10:48:04;;;;;;;5.20;2.00;;;29.80;57.50;;;;;;5027997;28;20045;-65
2022/08/12 10:50:30;;;;;;;5.63;2.10;;;29.80;57.10;;;;;;5042050;28;20361;-65
2022/08/12 10:52:56;;;;;;;4.22;2.00;;;29.90;56.70;;;;;;5042963;28;20060;-65
2022/08/12 10:55:21;;;;;;;4.43;1.75;;;29.90;55.10;;;;;;5050114;28;20037;-65
2022/08/12 10:57:47;;;;;;;2.80;1.60;;;29.90;55.70;;;;;;5051160;28;20041;-65
2022/08/12 11:00:14;;;;;;;4.28;1.60;;;30.10;55.80;;;;;;5050265;28;20095;-65
2022/08/12 11:02:53;;;;;;;4.22;1.70;;;30.10;54.00;;;;;;5049268;28;20495;-65
2022/08/12 11:05:19;;;;;;;4.60;2.00;;;30.20;55.00;;;;;;5049602;28;20377;-65
2022/08/12 11:07:46;;;;;;;4.32;1.70;;;30.20;54.90;;;;;;5048499;28;20060;-65
2022/08/12 11:10:13;;;;;;;4.50;2.15;;;30.30;55.90;;;;;;5050367;28;20134;-65
2022/08/12 11:12:45;;;;;;;2.85;1.67;;;30.30;55.50;;;;;;5050781;28;20078;-65
2022/08/12 11:15:11;;;;;;;4.53;1.83;;;30.40;55.10;;;;;;5048155;28;20514;-65
2022/08/12 11:17:37;;;;;;;5.25;2.00;;;30.40;55.70;;;;;;5050668;28;20045;-65
2022/08/12 11:20:03;;;;;;;4.30;1.88;;;30.50;55.80;;;;;;5041148;28;20038;-65
2022/08/12 11:22:29;;;;;;;4.63;2.05;;;30.40;54.30;;;;;;5031231;28;20055;-65
2022/08/12 11:24:54;;;;;;;3.67;1.83;;;30.50;54.50;;;;;;5049545;28;20139;-65
2022/08/12 11:27:20;;;;;;;3.65;1.90;;;30.50;54.30;;;;;;5043302;28;20048;-65
2022/08/12 11:29:45;;;;;;;4.10;2.00;;;30.50;54.40;;;;;;5044280;28;20045;-66
2022/08/12 11:32:11;;;;;;;3.53;2.00;;;30.50;55.60;;;;;;5047425;28;20072;-65
2022/08/12 11:34:36;;;;;;;5.20;2.15;;;30.50;54.40;;;;;;5049684;28;20053;-65
2022/08/12 11:37:06;;;;;;;3.33;2.08;;;30.50;53.70;;;;;;5047905;28;20071;-64
2022/08/12 11:39:32;;;;;;;5.65;2.13;;;30.50;53.70;;;;;;5046460;28;20052;-64
2022/08/12 11:41:59;;;;;;;4.75;2.15;;;30.50;54.30;;;;;;5047082;28;20044;-66
2022/08/12 11:44:24;;;;;;;3.25;1.90;;;30.60;54.70;;;;;;5048666;28;20322;-66
2022/08/12 11:46:53;;;;;;;4.40;2.00;;;30.70;54.00;;;;;;5044364;28;20087;-65
2022/08/12 11:49:20;;;;;;;4.65;1.90;;;30.70;53.50;;;;;;5049091;28;20055;-65
2022/08/12 11:51:46;;;;;;;4.20;1.88;;;30.80;53.90;;;;;;5046939;28;20045;-65
2022/08/12 11:54:11;;;;;;;6.95;2.08;;;30.80;53.80;;;;;;5043022;28;20098;-66
2022/08/12 11:56:37;;;;;;;4.03;2.00;;;30.80;54.00;;;;;;5042422;28;20034;-65
2022/08/12 11:59:03;;;;;;;3.83;2.00;;;30.80;52.20;;;;;;5047274;28;20135;-65
2022/08/12 12:01:28;;;;;;;3.30;1.83;;;30.90;52.90;;;;;;5051453;28;20135;-65
2022/08/12 12:03:54;;;;;;;4.82;1.92;;;30.90;52.70;;;;;;5046609;28;20043;-65
2022/08/12 12:06:20;;;;;;;3.47;1.80;;;31.10;53.00;;;;;;5045069;28;20072;-65
2022/08/12 12:08:46;;;;;;;3.85;1.92;;;31.10;51.60;;;;;;5044254;28;20203;-64
2022/08/12 12:11:12;;;;;;;4.57;1.98;;;31.10;51.70;;;;;;5048361;28;20098;-63
2022/08/12 12:13:38;;;;;;;4.95;1.90;;;31.10;52.20;;;;;;5042208;28;20377;-63
2022/08/12 12:16:04;;;;;;;4.00;2.10;;;31.20;52.10;;;;;;5056951;28;20041;-64
2022/08/12 12:18:30;;;;;;;4.07;1.90;;;31.30;52.10;;;;;;5041006;28;20068;-64
2022/08/12 12:21:04;;;;;;;4.82;2.03;;;31.40;52.70;;;;;;5038175;28;20144;-65
2022/08/12 12:23:31;;;;;;;6.30;2.15;;;31.40;52.70;;;;;;5052780;28;20048;-65
2022/08/12 12:25:56;;;;;;;6.15;2.58;;;31.40;52.00;;;;;;5045538;28;20059;-65
2022/08/12 12:28:22;;;;;;;4.50;1.80;;;31.40;52.10;;;;;;5033490;28;20041;-64
2022/08/12 12:30:48;;;;;;;5.05;2.22;;;31.50;51.90;;;;;;5027876;28;20045;-65
2022/08/12 12:33:13;;;;;;;4.18;2.28;;;31.60;51.70;;;;;;5029651;28;20038;-66
2022/08/12 12:35:40;;;;;;;3.90;2.30;;;31.60;51.20;;;;;;5045468;28;20354;-65
2022/08/12 12:38:08;;;;;;;5.68;2.30;;;31.60;50.80;;;;;;5034330;28;20045;-65
2022/08/12 12:40:35;;;;;;;6.00;2.22;;;31.60;50.70;;;;;;5045075;28;20038;-65
2022/08/12 12:43:01;;;;;;;4.07;1.90;;;31.60;49.90;;;;;;5044090;28;20460;-64
2022/08/12 12:45:29;;;;;;;5.20;2.10;;;31.60;49.60;;;;;;5033317;28;20090;-65
2022/08/12 12:48:00;;;;;;;7.10;2.33;;;31.60;50.40;;;;;;5049892;28;20446;-65
2022/08/12 12:50:28;;;;;;;3.97;1.88;;;31.60;50.80;;;;;;5048023;28;20561;-65
2022/08/12 12:52:54;;;;;;;4.40;2.03;;;31.80;51.50;;;;;;5034127;28;20678;-65
2022/08/12 12:55:20;;;;;;;4.85;2.10;;;31.90;51.90;;;;;;5043866;28;20069;-65
2022/08/12 12:57:47;;;;;;;4.05;2.10;;;31.90;51.10;;;;;;5044624;28;20041;-64
2022/08/12 13:00:14;;;;;;;4.43;2.03;;;31.90;50.50;;;;;;5042951;28;20046;-65
2022/08/12 13:02:54;;;;;;;4.10;2.08;;;31.90;50.60;;;;;;5041064;28;20120;-65
2022/08/12 13:05:21;;;;;;;3.92;2.30;;;31.90;50.00;;;;;;5048911;28;20033;-63
2022/08/12 13:07:48;;;;;;;3.40;1.80;;;32.00;50.20;;;;;;5041702;28;20091;-63
2022/08/12 13:10:14;;;;;;;6.78;2.30;;;32.00;49.80;;;;;;5046693;28;20377;-65
2022/08/12 13:12:41;;;;;;;5.05;1.98;;;32.00;49.20;;;;;;5047827;28;20059;-65
2022/08/12 13:15:09;;;;;;;4.00;2.28;;;32.00;49.30;;;;;;5044651;28;20106;-65
2022/08/12 13:17:35;;;;;;;5.35;2.17;;;32.00;48.60;;;;;;5048079;28;20498;-65
2022/08/12 13:20:04;;;;;;;4.50;2.13;;;31.90;48.50;;;;;;5047036;28;20071;-65
2022/08/12 13:22:31;;;;;;;4.55;2.30;;;32.00;49.10;;;;;;5045406;28;20056;-64
2022/08/12 13:24:58;;;;;;;5.60;2.08;;;32.00;49.20;;;;;;5042757;28;20123;-65
2022/08/12 13:27:32;;;;;;;7.72;2.35;;;32.10;48.60;;;;;;5050856;28;20052;-65
2022/08/12 13:29:57;;;;;;;4.43;2.10;;;32.10;48.90;;;;;;5047250;28;20037;-65
2022/08/12 13:32:23;;;;;;;4.50;2.10;;;32.10;49.80;;;;;;5046137;28;20095;-65
2022/08/12 13:34:51;;;;;;;4.25;2.20;;;32.20;49.60;;;;;;5043357;28;20045;-65
2022/08/12 13:37:23;;;;;;;4.68;1.90;;;32.30;49.90;;;;;;5052385;28;20346;-64
2022/08/12 13:39:50;;;;;;;3.97;2.05;;;32.30;48.90;;;;;;5046857;28;20338;-65
2022/08/12 13:42:16;;;;;;;5.68;2.13;;;32.40;48.40;;;;;;5047068;28;20040;-64
2022/08/12 13:44:43;;;;;;;4.18;2.10;;;32.40;48.00;;;;;;5043887;28;20118;-65
2022/08/12 13:47:09;;;;;;;3.85;2.10;;;32.30;47.90;;;;;;5038427;28;20566;-64
2022/08/12 13:49:35;;;;;;;4.20;2.10;;;32.40;48.50;;;;;;5026694;28;20033;-65
2022/08/12 13:52:01;;;;;;;5.40;2.03;;;32.40;48.40;;;;;;5040159;28;20106;-64
2022/08/12 13:54:26;;;;;;;4.45;2.13;;;32.40;48.00;;;;;;5042995;28;20042;-66
2022/08/12 13:56:52;;;;;;;6.40;2.20;;;32.40;48.00;;;;;;5032775;28;20119;-65
2022/08/12 13:59:20;;;;;;;4.25;2.42;;;32.40;48.00;;;;;;5050725;28;20041;-65
2022/08/12 14:01:48;;;;;;;5.90;2.63;;;32.50;47.80;;;;;;5048728;28;20076;-65
2022/08/12 14:04:14;;;;;;;4.50;2.20;;;32.50;47.10;;;;;;5046172;28;20060;-66
2022/08/12 14:06:40;;;;;;;5.88;2.35;;;32.50;47.00;;;;;;5044651;28;20048;-65
2022/08/12 14:09:07;;;;;;;5.75;2.50;;;32.50;47.40;;;;;;5046542;28;20369;-64
2022/08/12 14:11:32;;;;;;;3.92;2.30;;;32.50;47.10;;;;;;5055611;28;20483;-65
2022/08/12 14:13:58;;;;;;;4.78;2.53;;;32.50;46.80;;;;;;5050877;28;20040;-65
2022/08/12 14:16:24;;;;;;;4.30;2.00;;;32.40;45.90;;;;;;5043215;28;20341;-64
2022/08/12 14:18:50;;;;;;;4.07;1.98;;;32.40;46.80;;;;;;5048366;28;20207;-63
2022/08/12 14:21:16;;;;;;;5.07;2.28;;;32.40;47.00;;;;;;5048827;28;20488;-64
2022/08/12 14:23:46;;;;;;;3.95;2.30;;;32.40;47.10;;;;;;5038812;28;20033;-64
2022/08/12 14:26:16;;;;;;;4.18;2.50;;;32.40;46.70;;;;;;5040706;28;20044;-64
2022/08/12 14:28:42;;;;;;;5.90;2.33;;;32.40;46.30;;;;;;5032576;28;20049;-64
2022/08/12 14:31:11;;;;;;;4.50;2.40;;;32.50;46.90;;;;;;5047863;28;20091;-62
2022/08/12 14:33:39;;;;;;;5.80;2.20;;;32.50;46.50;;;;;;5036277;28;20093;-62
2022/08/12 14:36:13;;;;;;;6.05;2.38;;;32.50;46.30;;;;;;5039361;28;20050;-64
2022/08/12 14:38:43;;;;;;;4.10;2.10;;;32.60;46.10;;;;;;5040141;28;20055;-63